createdAt,value
2022-07-28T00:07:11.703Z,3.50
2022-07-28T00:17:24.713Z,3.30
2022-07-28T00:27:37.701Z,3.50
2022-07-28T00:37:57.701Z,3.20
2022-07-28T00:48:10.720Z,3.60
2022-07-28T00:58:23.707Z,3.50
2022-07-28T01:09:00.732Z,3.60
2022-07-28T01:19:22.765Z,3.40
2022-07-28T01:29:44.756Z,3.70
2022-07-28T01:40:00.784Z,4.00
2022-07-28T01:50:15.777Z,4.70
2022-07-28T02:00:28.762Z,5.30
2022-07-28T02:10:42.811Z,5.90
2022-07-28T02:20:56.832Z,5.20
2022-07-28T02:31:12.839Z,5.20
2022-07-28T02:41:30.815Z,4.70
2022-07-28T02:51:44.827Z,4.40
2022-07-28T03:01:57.876Z,4.10
2022-07-28T03:12:10.829Z,4.20
2022-07-28T03:22:23.860Z,3.50
2022-07-28T03:32:39.848Z,3.50
2022-07-28T03:42:53.873Z,3.60
2022-07-28T03:53:09.860Z,3.70
2022-07-28T04:03:42.794Z,3.30
2022-07-28T04:13:54.870Z,3.20
2022-07-28T04:24:07.901Z,3.50
2022-07-28T04:34:26.909Z,3.60
2022-07-28T04:44:39.913Z,3.30
2022-07-28T04:54:52.928Z,3.50
2022-07-28T05:05:05.972Z,3.60
2022-07-28T05:15:18.951Z,3.50
2022-07-28T05:25:32.946Z,3.50
2022-07-28T05:35:52.947Z,3.40
2022-07-28T05:46:06.033Z,3.40
2022-07-28T05:56:18.970Z,3.50
2022-07-28T06:06:31.974Z,4.20
2022-07-28T06:16:45.043Z,3.50
2022-07-28T06:26:58.006Z,3.60
2022-07-28T06:37:11.974Z,4.00
2022-07-28T06:47:25.029Z,3.30
2022-07-28T06:57:39.024Z,3.50
2022-07-28T07:07:52.030Z,3.00
2022-07-28T07:18:05.036Z,3.00
2022-07-28T07:28:18.062Z,3.30
2022-07-28T07:38:37.042Z,3.00
2022-07-28T07:48:50.101Z,2.90
2022-07-28T07:59:03.058Z,2.70
2022-07-28T08:09:16.088Z,3.20
2022-07-28T08:19:29.101Z,2.60
2022-07-28T08:29:43.111Z,2.80
2022-07-28T08:39:56.090Z,2.80
2022-07-28T08:50:09.142Z,3.00
2022-07-28T09:00:22.106Z,2.80
2022-07-28T09:10:36.137Z,3.10
2022-07-28T09:20:49.141Z,3.10
2022-07-28T09:31:02.186Z,3.30
2022-07-28T09:41:15.159Z,2.80
2022-07-28T10:02:08.210Z,3.20
2022-07-28T10:12:28.201Z,2.70
2022-07-28T10:22:43.558Z,2.90
2022-07-28T10:32:56.217Z,3.20
2022-07-28T10:43:09.194Z,3.00
2022-07-28T10:53:33.240Z,3.60
2022-07-28T11:03:55.311Z,3.50
2022-07-28T11:14:43.309Z,3.20
2022-07-28T11:25:18.500Z,3.60
2022-07-28T11:35:42.256Z,3.35
2022-07-28T11:45:56.329Z,2.90
2022-07-28T11:56:11.289Z,2.80
2022-07-28T12:06:28.735Z,3.30
2022-07-28T12:16:44.395Z,3.70
2022-07-28T12:26:57.323Z,3.20
2022-07-28T12:37:20.306Z,3.40
2022-07-28T12:47:36.324Z,3.20
2022-07-28T12:57:55.325Z,2.60
2022-07-28T13:08:09.400Z,2.70
2022-07-28T13:18:24.563Z,3.20
2022-07-28T13:28:37.377Z,4.00
2022-07-28T13:38:50.350Z,3.10
2022-07-28T13:49:03.419Z,3.20
2022-07-28T13:59:18.364Z,2.60
2022-07-28T14:09:33.237Z,2.70
2022-07-28T14:19:49.408Z,2.50
2022-07-28T14:30:03.895Z,2.80
2022-07-28T14:40:17.423Z,2.90
2022-07-28T14:50:31.428Z,2.50
2022-07-28T15:00:44.440Z,2.90
2022-07-28T15:10:58.457Z,2.90
2022-07-28T15:21:11.447Z,2.70
2022-07-28T15:31:24.523Z,3.00
2022-07-28T15:41:38.474Z,2.90
2022-07-28T15:51:51.495Z,3.10
2022-07-28T16:02:04.508Z,3.20
2022-07-28T16:12:17.523Z,2.90
2022-07-28T16:22:30.494Z,2.80
2022-07-28T16:32:43.541Z,2.70
2022-07-28T16:42:58.505Z,3.50
2022-07-28T16:53:14.548Z,3.00
2022-07-28T17:03:27.556Z,3.00
2022-07-28T17:13:47.558Z,2.70
2022-07-28T17:24:00.559Z,2.70
2022-07-28T17:34:13.826Z,2.60
2022-07-28T17:44:26.575Z,3.20
2022-07-28T17:54:59.607Z,3.10
2022-07-28T18:05:13.591Z,2.80
2022-07-28T18:15:26.638Z,2.90
2022-07-28T18:25:45.009Z,3.00
2022-07-28T18:36:04.643Z,3.00
2022-07-28T18:46:17.726Z,3.40
2022-07-28T18:56:30.650Z,3.30
2022-07-28T19:06:43.653Z,3.60
2022-07-28T19:16:56.691Z,3.60
2022-07-28T19:27:10.802Z,3.45
2022-07-28T19:37:30.692Z,3.50
2022-07-28T19:47:43.777Z,3.70
2022-07-28T19:57:56.692Z,3.70
2022-07-28T20:08:09.702Z,3.60
2022-07-28T20:18:26.743Z,3.70
2022-07-28T20:28:39.702Z,3.90
2022-07-28T20:38:52.754Z,3.90
2022-07-28T20:49:05.951Z,3.70
2022-07-28T20:59:18.755Z,3.50
2022-07-28T21:09:31.740Z,3.60
2022-07-28T21:19:44.795Z,3.50
2022-07-28T21:30:10.778Z,3.90
2022-07-28T21:40:30.796Z,3.50
2022-07-28T21:50:44.781Z,3.60
2022-07-28T22:01:02.459Z,3.70
2022-07-28T22:11:15.803Z,3.80
2022-07-28T22:21:28.822Z,3.90
2022-07-28T22:31:42.871Z,4.20
2022-07-28T22:41:55.872Z,4.10
2022-07-28T22:52:08.843Z,4.10
2022-07-28T23:02:21.848Z,4.60
2022-07-28T23:12:34.854Z,4.00
2022-07-28T23:22:47.885Z,4.20
2022-07-28T23:33:00.863Z,4.20
2022-07-28T23:43:13.895Z,3.90
2022-07-28T23:53:26.910Z,4.20
